Flight Track Log - Related Links

Times and Time Zones

All times are in EDT time to prevent confusion due to time zone crossing. See the ASA124 flight status page for this flight to view local times or setup timezone preferences in your user account.


Time Position Orientation Groundspeed Altitude Reporting Facility
EDT Latitude Longitude Course Direction KTS MPH feet Rate Location/Type
Wed 09:13:28 PM 64.7500 -147.7833 123° Southeast 240 276 4,000  Level Anchorage Center
Wed 09:14:28 PM 64.7000 -147.6500 131° Southeast 270 311 6,800 2,773 Climbing Anchorage Center
Wed 09:15:27 PM 64.6500 -147.5000 128° Southeast 290 334 9,500 2,420 Climbing Anchorage Center
Wed 09:16:27 PM 64.6167 -147.3167 113° Southeast 330 380 11,600 2,281 Climbing Anchorage Center
Wed 09:17:28 PM 64.5667 -147.1333 122° Southeast 340 391 14,100 2,430 Climbing Anchorage Center
Wed 09:18:00 PM 64.3857 -146.5107 123° Southeast  Level FlightAware Approximate
Wed 09:18:28 PM 64.5000 -146.9333 128° Southeast 360 414 16,500  Level Anchorage Center
Wed 09:19:28 PM 64.4500 -146.7333 120° Southeast 400 460 17,700 2,050 Climbing Anchorage Center
Wed 09:20:28 PM 64.3833 -146.5000 123° Southeast 410 472 20,600 2,700 Climbing Anchorage Center
Wed 09:21:28 PM 64.3167 -146.2833 125° Southeast 420 483 23,100 1,800 Climbing Anchorage Center
Wed 09:22:28 PM 64.2500 -146.0333 121° Southeast 430 495 24,200 1,150 Climbing Anchorage Center
Wed 09:23:28 PM 64.1833 -145.8000 123° Southeast 450 518 25,400 1,750 Climbing Anchorage Center
Wed 09:24:28 PM 64.1167 -145.5667 123° Southeast 460 529 27,700 2,150 Climbing Anchorage Center
Wed 09:25:28 PM 64.0333 -145.3167 127° Southeast 450 518 29,700 1,438 Climbing Anchorage Center
Wed 09:26:29 PM 63.9667 -145.0833 123° Southeast 450 518 30,600 850 Climbing Anchorage Center
Wed 09:27:28 PM 63.9000 -144.8333 121° Southeast 470 541 31,400 900 Climbing Anchorage Center
Wed 09:28:29 PM 63.8167 -144.5833 127° Southeast 490 564 32,400 1,339 Climbing Anchorage Center
Wed 09:29:29 PM 63.7333 -144.3333 127° Southeast 470 541 34,100 1,400 Climbing Anchorage Center
Wed 09:30:29 PM 63.6667 -144.1000 123° Southeast 470 541 35,200 1,000 Climbing Anchorage Center
Wed 09:31:29 PM 63.5833 -143.8667 129° Southeast 450 518 36,100 750 Climbing Anchorage Center
Wed 09:32:29 PM 63.5167 -143.6333 123° Southeast 470 541 36,700 450 Climbing Anchorage Center
Wed 09:33:29 PM 63.4333 -143.4000 129° Southeast 470 541 37,000 150 Climbing Anchorage Center
Wed 09:34:29 PM 63.3667 -143.1500 121° Southeast 470 541 37,000  Level Anchorage Center
Wed 09:35:29 PM 63.2833 -142.9333 130° Southeast 460 529 37,000  Level Anchorage Center
Wed 09:36:29 PM 63.2167 -142.7000 122° Southeast 460 529 37,000  Level Anchorage Center
Wed 09:37:29 PM 63.1333 -142.4500 126° Southeast 480 552 37,000  Level Anchorage Center
Wed 09:38:30 PM 63.0500 -142.2333 130° Southeast 470 541 37,000  Level Anchorage Center
Wed 09:39:30 PM 62.9833 -142.0000 122° Southeast 460 529 37,000  Level Anchorage Center
Wed 09:40:30 PM 62.9000 -141.7833 130° Southeast 450 518 37,000  Level Anchorage Center
Wed 09:41:30 PM 62.8000 -141.6000 140° Southeast 450 518 37,000  Level Anchorage Center
Wed 09:42:30 PM 62.7000 -141.4333 143° Southeast 450 518 37,000  Level Anchorage Center
Wed 09:43:30 PM 62.6167 -141.2500 135° Southeast 450 518 37,000  Level Anchorage Center
Wed 09:44:30 PM 62.5167 -141.1000 145° Southeast 450 518 37,000  Level Anchorage Center
Wed 09:45:30 PM 62.4333 -140.9333 137° Southeast 440 506 37,000  Level Anchorage Center
Wed 09:47:00 PM 62.2977 -140.6802 139° Southeast  Level FlightAware Approximate
Wed 09:52:31 PM 61.7500 -139.7000 141° Southeast 460 529 37,000  Level Anchorage Center
Wed 09:54:00 PM 61.6586 -139.5284 139° Southeast  Level FlightAware Approximate
Wed 09:54:31 PM 61.5500 -139.3333 139° Southeast 450 518 37,000  Level Anchorage Center
Wed 09:55:00 PM 61.5665 -139.3678 140° Southeast  Level FlightAware Approximate
Wed 09:55:31 PM 61.4500 -139.1667 141° Southeast 460 529 37,000  Level Anchorage Center
Wed 09:56:00 PM 61.4742 -139.2081 140° Southeast  Level FlightAware Approximate
Wed 09:56:31 PM 61.3500 -139.0000 141° Southeast 450 518 37,000  Level Anchorage Center
Wed 09:57:00 PM 61.3818 -139.0494 141° Southeast  Level FlightAware Approximate
Wed 09:57:32 PM 61.2500 -138.8667 147° Southeast 450 518 37,000  Level Anchorage Center
Wed 09:58:31 PM 61.1500 -138.7333 147° Southeast 440 506 37,000  Level Anchorage Center
Wed 09:59:32 PM 61.0500 -138.6000 147° Southeast 440 506 37,000  Level Anchorage Center
Wed 10:00:32 PM 60.9333 -138.4667 151° Southeast 440 506 37,000  Level Anchorage Center
Wed 10:01:32 PM 60.8333 -138.3333 147° Southeast 430 495 37,000  Level Anchorage Center
Wed 10:02:32 PM 60.7333 -138.2000 147° Southeast 430 495 37,000  Level Anchorage Center
Wed 10:03:32 PM 60.6333 -138.0667 147° Southeast 440 506 37,000  Level Anchorage Center
Wed 10:04:32 PM 60.5333 -137.9500 150° Southeast 430 495 37,000  Level Anchorage Center
Wed 10:05:33 PM 60.4167 -137.8167 151° Southeast 430 495 37,000  Level Anchorage Center
Wed 10:06:32 PM 60.3167 -137.7000 150° Southeast 430 495 37,000  Level Anchorage Center
Wed 10:07:32 PM 60.2167 -137.5667 146° Southeast 420 483 37,000  Level Anchorage Center
Wed 10:08:33 PM 60.1167 -137.4500 150° Southeast 430 495 37,000  Level Anchorage Center
Wed 10:09:33 PM 60.0167 -137.3167 146° Southeast 430 495 37,000  Level Anchorage Center
Wed 10:10:33 PM 59.9333 -137.2167 149° Southeast 430 495 37,000  Level Anchorage Center
Wed 10:11:33 PM 59.8333 -137.1000 150° Southeast 430 495 37,000  Level Anchorage Center
Wed 10:12:33 PM 59.7333 -136.9833 150° Southeast 430 495 37,000  Level Anchorage Center
Wed 10:13:33 PM 59.6167 -136.8667 153° Southeast 430 495 37,000  Level Anchorage Center
Wed 10:14:33 PM 59.5167 -136.7500 149° Southeast 430 495 37,000  Level Anchorage Center
Wed 10:15:34 PM 59.4167 -136.6333 149° Southeast 430 495 37,000  Level Anchorage Center
Wed 10:16:34 PM 59.3167 -136.5000 146° Southeast 430 495 37,000  Level Anchorage Center
Wed 10:17:34 PM 59.2167 -136.3833 149° Southeast 430 495 37,000  Level Anchorage Center
Wed 10:18:34 PM 59.1000 -136.2667 153° Southeast 430 495 37,000  Level Anchorage Center
Wed 10:19:34 PM 59.0000 -136.1500 149° Southeast 430 495 37,000  Level Anchorage Center
Wed 10:20:34 PM 58.9000 -136.0333 149° Southeast 430 495 37,000  Level Anchorage Center
Wed 10:21:34 PM 58.8000 -135.9167 149° Southeast 430 495 37,000  Level Anchorage Center
Wed 10:22:34 PM 58.6833 -135.8167 156° South 430 495 37,000  Level Anchorage Center
Wed 10:23:34 PM 58.5833 -135.7000 149° Southeast 440 506 37,000  Level Anchorage Center
Wed 10:24:34 PM 58.4833 -135.5500 142° Southeast 440 506 37,000  Level Anchorage Center
Wed 10:25:35 PM 58.3833 -135.3833 139° Southeast 460 529 37,000  Level Anchorage Center
Wed 10:26:35 PM 58.2833 -135.2333 142° Southeast 460 529 37,000  Level Anchorage Center
Wed 10:27:35 PM 58.1833 -135.0500 136° Southeast 470 541 37,000  Level Anchorage Center
Wed 10:28:35 PM 58.0833 -134.9000 142° Southeast 470 541 37,000  Level Anchorage Center
Wed 10:29:35 PM 58.0000 -134.7500 136° Southeast 460 529 37,000  Level Anchorage Center
Wed 10:30:35 PM 57.9000 -134.5833 138° Southeast 450 518 37,000  Level Anchorage Center
Wed 10:31:35 PM 57.8000 -134.4333 141° Southeast 460 529 37,000  Level Anchorage Center
Wed 10:32:35 PM 57.7000 -134.2833 141° Southeast 450 518 37,000  Level Anchorage Center
Wed 10:33:35 PM 57.6000 -134.1333 141° Southeast 450 518 37,000  Level Anchorage Center
Wed 10:34:35 PM 57.5000 -133.9667 138° Southeast 460 529 37,000  Level Anchorage Center
Wed 10:35:36 PM 57.4167 -133.8167 136° Southeast 460 529 37,000  Level Anchorage Center
Wed 10:36:36 PM 57.3167 -133.6667 141° Southeast 460 529 37,000  Level Anchorage Center
Wed 10:37:36 PM 57.2167 -133.5167 141° Southeast 460 529 37,000  Level Anchorage Center
Wed 10:38:36 PM 57.1167 -133.3667 141° Southeast 460 529 37,000  Level Anchorage Center
Wed 10:39:36 PM 57.0167 -133.2167 141° Southeast 460 529 37,000  Level Anchorage Center
Wed 10:40:36 PM 56.9167 -133.0667 141° Southeast 470 541 37,000  Level Anchorage Center
Wed 10:41:36 PM 56.8167 -132.9167 141° Southeast 470 541 37,000  Level Anchorage Center
Wed 10:42:37 PM 56.7167 -132.7667 141° Southeast 470 541 37,000  Level Anchorage Center
Wed 10:43:37 PM 56.6167 -132.6167 140° Southeast 460 529 37,000  Level Anchorage Center
Wed 10:44:37 PM 56.5167 -132.4667 140° Southeast 470 541 37,000  Level Anchorage Center
Wed 10:45:37 PM 56.4000 -132.3167 145° Southeast 470 541 37,000  Level Anchorage Center
Wed 10:46:37 PM 56.3000 -132.1833 143° Southeast 480 552 37,000  Level Anchorage Center
Wed 10:47:37 PM 56.2000 -132.0333 140° Southeast 460 529 37,000  Level Anchorage Center
Wed 10:48:37 PM 56.1000 -131.8833 140° Southeast 470 541 37,000  Level Anchorage Center
Wed 10:49:37 PM 56.0000 -131.7500 143° Southeast 470 541 37,000  Level Anchorage Center
Wed 10:50:37 PM 55.9000 -131.6000 140° Southeast 470 541 37,000  Level Anchorage Center
Wed 10:51:38 PM 55.8000 -131.4667 143° Southeast 460 529 37,000  Level Anchorage Center
Wed 10:52:38 PM 55.7167 -131.3500 142° Southeast 460 529 37,000  Level Anchorage Center
Wed 10:53:38 PM 55.6000 -131.1833 141° Southeast 470 541 37,000  Level Anchorage Center
Wed 10:54:38 PM 55.4833 -131.0333 144° Southeast 470 541 37,000  Level Anchorage Center
Wed 10:55:38 PM 55.3833 -130.9000 143° Southeast 470 541 37,000  Level Anchorage Center
Wed 10:56:38 PM 55.2833 -130.7500 139° Southeast 470 541 37,000  Level Anchorage Center
Wed 10:57:38 PM 55.1667 -130.6167 147° Southeast 470 541 37,000  Level Anchorage Center
Wed 10:58:20 PM 55.1000 -130.5667 157° South 470 541 37,000  Level Vancouver Center
Wed 10:59:20 PM 54.9833 -130.4333 147° Southeast 470 541 37,000  Level Vancouver Center
Wed 11:00:20 PM 54.8833 -130.2667 136° Southeast 470 541 37,000  Level Vancouver Center
Wed 11:01:20 PM 54.7833 -130.1333 142° Southeast 480 552 37,000  Level Vancouver Center
Wed 11:02:20 PM 54.6833 -130.0000 142° Southeast 470 541 37,000  Level Vancouver Center
Wed 11:03:20 PM 54.5667 -129.8667 146° Southeast 480 552 37,000  Level Vancouver Center
Wed 11:04:20 PM 54.4667 -129.7500 146° Southeast 470 541 37,000  Level Vancouver Center
Wed 11:05:20 PM 54.3667 -129.5833 136° Southeast 470 541 37,000  Level Vancouver Center
Wed 11:06:20 PM 54.2500 -129.4500 146° Southeast 480 552 37,000  Level Vancouver Center
Wed 11:07:20 PM 54.1333 -129.3333 150° Southeast 480 552 37,000  Level Vancouver Center
Wed 11:08:20 PM 54.0500 -129.2000 137° Southeast 470 541 37,000  Level Vancouver Center
Wed 11:09:20 PM 53.9333 -129.0667 146° Southeast 480 552 37,000  Level Vancouver Center
Wed 11:10:20 PM 53.8167 -128.9500 149° Southeast 470 541 37,000  Level Vancouver Center
Wed 11:11:20 PM 53.7333 -128.8167 137° Southeast 480 552 37,000  Level Vancouver Center
Wed 11:12:20 PM 53.6167 -128.6667 143° Southeast 470 541 37,000  Level Vancouver Center
Wed 11:13:20 PM 53.5000 -128.5333 146° Southeast 480 552 37,000  Level Vancouver Center
Wed 11:14:20 PM 53.3833 -128.4167 149° Southeast 490 564 37,000  Level Vancouver Center
Wed 11:15:20 PM 53.2833 -128.3000 145° Southeast 480 552 37,000  Level Vancouver Center
Wed 11:16:20 PM 53.1667 -128.1500 142° Southeast 500 575 37,000  Level Vancouver Center
Wed 11:17:20 PM 53.0500 -128.0167 145° Southeast 480 552 37,000  Level Vancouver Center
Wed 11:18:20 PM 52.9667 -127.9000 140° Southeast 470 541 37,000  Level Vancouver Center
Wed 11:19:20 PM 52.8500 -127.7833 149° Southeast 470 541 37,000  Level Vancouver Center
Wed 11:20:30 PM 52.7333 -127.6333 142° Southeast 470 541 37,000  Level Vancouver Center
Wed 11:21:30 PM 52.6167 -127.5167 149° Southeast 470 541 37,000  Level Vancouver Center
Wed 11:22:30 PM 52.5000 -127.3833 145° Southeast 470 541 37,000  Level Vancouver Center
Wed 11:23:30 PM 52.4000 -127.2500 141° Southeast 470 541 37,000  Level Vancouver Center
Wed 11:24:30 PM 52.3000 -127.1333 144° Southeast 480 552 37,000  Level Vancouver Center
Wed 11:25:30 PM 52.1833 -127.0167 148° Southeast 480 552 37,000  Level Vancouver Center
Wed 11:26:30 PM 52.0667 -126.9000 148° Southeast 470 541 37,000  Level Vancouver Center
Wed 11:27:30 PM 51.9667 -126.7833 144° Southeast 460 529 37,000  Level Vancouver Center
Wed 11:28:30 PM 51.8667 -126.6667 144° Southeast 460 529 37,000  Level Vancouver Center
Wed 11:29:30 PM 51.7667 -126.5500 144° Southeast 460 529 37,000  Level Vancouver Center
Wed 11:30:30 PM 51.6500 -126.4333 148° Southeast 460 529 37,000  Level Vancouver Center
Wed 11:31:30 PM 51.5500 -126.3167 144° Southeast 470 541 37,000  Level Vancouver Center
Wed 11:32:30 PM 51.4333 -126.2167 152° Southeast 470 541 37,000  Level Vancouver Center
Wed 11:33:30 PM 51.3167 -126.1000 148° Southeast 470 541 37,000  Level Vancouver Center
Wed 11:34:30 PM 51.2000 -125.9500 141° Southeast 460 529 37,000  Level Vancouver Center
Wed 11:35:30 PM 51.1000 -125.8500 148° Southeast 460 529 37,000  Level Vancouver Center
Wed 11:36:30 PM 51.0167 -125.7333 139° Southeast 460 529 37,000  Level Vancouver Center
Wed 11:37:30 PM 50.9000 -125.6167 148° Southeast 460 529 37,000  Level Vancouver Center
Wed 11:38:30 PM 50.8000 -125.5167 148° Southeast 460 529 37,000  Level Vancouver Center
Wed 11:39:30 PM 50.6833 -125.4000 148° Southeast 450 518 37,000  Level Vancouver Center
Wed 11:40:30 PM 50.5833 -125.3000 148° Southeast 450 518 37,000  Level Vancouver Center
Wed 11:41:30 PM 50.4833 -125.1833 143° Southeast 440 506 37,000  Level Vancouver Center
Wed 11:42:30 PM 50.3833 -125.1000 152° Southeast 430 495 37,000  Level Vancouver Center
Wed 11:43:30 PM 50.2833 -125.0000 147° Southeast 430 495 37,000  Level Vancouver Center
Wed 11:44:30 PM 50.1667 -124.9000 151° Southeast 430 495 37,000  Level Vancouver Center
Wed 11:45:30 PM 50.0667 -124.7833 143° Southeast 430 495 37,000  Level Vancouver Center
Wed 11:46:30 PM 49.9667 -124.7000 152° Southeast 430 495 37,000  Level Vancouver Center
Wed 11:47:30 PM 49.8667 -124.6000 147° Southeast 430 495 37,000  Level Vancouver Center
Wed 11:48:30 PM 49.7667 -124.5000 147° Southeast 430 495 37,000  Level Vancouver Center
Wed 11:49:30 PM 49.6667 -124.4000 147° Southeast 430 495 37,000  Level Vancouver Center
Wed 11:50:30 PM 49.5667 -124.2833 143° Southeast 430 495 37,000  Level Vancouver Center
Wed 11:51:30 PM 49.4667 -124.2167 157° South 430 495 37,000  Level Vancouver Center
Wed 11:52:30 PM 49.3667 -124.1000 143° Southeast 420 483 37,000 -100 Level Vancouver Center
Wed 11:53:30 PM 49.2667 -124.0000 147° Southeast 420 483 36,800 -650 Descending Vancouver Center
Wed 11:54:30 PM 49.1667 -123.9333 156° South 410 472 35,700 -1,000 Descending Vancouver Center
Wed 11:55:30 PM 49.0833 -123.8167 137° Southeast 400 460 34,800 -950 Descending Vancouver Center
Wed 11:56:30 PM 48.9833 -123.7500 156° South 390 449 33,800 -950 Descending Vancouver Center
Wed 11:57:30 PM 48.9000 -123.6667 147° Southeast 380 437 32,900 -1,000 Descending Vancouver Center
Wed 11:58:30 PM 48.8000 -123.5667 147° Southeast 380 437 31,800 -1,050 Descending Vancouver Center
Wed 11:59:30 PM 48.7167 -123.5000 152° Southeast 380 437 30,800 -1,000 Descending Vancouver Center
Thu 12:00:30 AM 48.6167 -123.4000 147° Southeast 370 426 29,800 -1,000 Descending Vancouver Center
Thu 12:01:30 AM 48.5333 -123.3167 146° Southeast 380 437 28,800 -1,000 Descending Vancouver Center
Thu 12:02:30 AM 48.4500 -123.2500 152° Southeast 370 426 27,800 -1,000 Descending Vancouver Center
Thu 12:03:30 AM 48.3667 -123.1667 146° Southeast 360 414 26,800 -1,279 Descending Vancouver Center
Thu 12:04:46 AM 48.2825 -123.0719 143° Southeast 361 415 24,900 -1,765 Descending Seattle Center
Thu 12:05:29 AM 48.2175 -123.0122 149° Southeast 347 399 23,300 -2,069 Descending Seattle Center
Thu 12:06:42 AM 48.1183 -122.9236 149° Southeast 335 386 20,900 -1,970 Descending Seattle Center
Thu 12:07:43 AM 48.0386 -122.8514 149° Southeast 334 384 18,900 -1,672 Descending Seattle Center
Thu 12:08:44 AM 47.9617 -122.7814 149° Southeast 323 372 17,500 -1,537 Descending Seattle Center
Thu 12:09:44 AM 47.8878 -122.7161 149° Southeast 312 359 15,800 -1,736 Descending Seattle Center
Thu 12:10:45 AM 47.8125 -122.6453 148° Southeast 309 356 14,000 -1,721 Descending Seattle Center
Thu 12:11:46 AM 47.7386 -122.5803 149° Southeast 307 353 12,300 -1,289 Descending Seattle Center
Thu 12:12:46 AM 47.6694 -122.5164 148° Southeast 273 314 11,400 -1,091 Descending Seattle Center
Thu 12:13:47 AM 47.6050 -122.4631 151° Southeast 258 297 10,100 -1,082 Descending Seattle Center
Thu 12:14:48 AM 47.5369 -122.4578 177° South 243 280 9,200 -793 Descending Seattle Center
Thu 12:15:48 AM 47.4739 -122.4628 183° South 221 254 8,500 -793 Descending Seattle Center
Thu 12:16:49 AM 47.4078 -122.4564 176° South 250 288 7,600 -1,180 Descending Seattle Center
Thu 12:17:50 AM 47.3364 -122.4464 175° South 242 278 6,100 -1,785 Descending Seattle Center
Thu 12:18:50 AM 47.2858 -122.4056 151° Southeast 232 267 4,000 -1,587 Descending Seattle Center
Thu 12:19:51 AM 47.3072 -122.3317 67° East 186 214 2,900 -992 Descending Seattle Center
Thu 12:20:51 AM 47.3489 -122.3119 18° North 163 188 2,000 -793 Descending Seattle Center
Thu 12:21:52 AM 47.3911 -122.3117 360° North 152 175 1,300 -698 Descending Seattle Center
Thu 12:23:00 AM 47.4358 -122.3122 360° North 142 163 500 -422 Descending Seattle Center
Thu 12:24:00 AM 47.4747 -122.3111 North 142 163 400 -100 Descending Seattle Center
Thu 12:25:00 AM 47.4499 -122.3118 180° South  Level Estimated

Login

Don't have an account? Register now (free) for customized features, flight alerts, and more!